Météo Nord-Pas-de-Calais   La météo au plus près de chez vous

Station météorologique

Observations météo à Chastreix (63098)

63098001 1385 m Dernier relevé à 10:54
10.3°C
Humidité 100 % Vent 11.9 km/h

Journée consultée

Lundi 31 Août 2026

Synthèse de la journée

Périodes de référence en UTC

Température maximale

10.3°C

à 10:54

06h 06h

Température minimale

8°C

à 07:54

18h 18h

Rafale maximale

30 km/h

à 03:00

00h 00h

Précipitations

0 mm

Cumul quotidien

06h 06h

Ensoleillement

0h 0 mins

Durée quotidienne

00h 00h

Graphiques de la journée

Heure locale Réduire

Données détaillées

Relevés météo

Pas de 6 minutes Afficher les relevés infra-horaires
Relevés météo détaillés à Chastreix pour le Lundi 31 Août 2026
Heure Température °C Point de rosée °C Humidité % Vent moyen (raf.), km/h Précipitations mm Ensoleillement min Rayonnement global W/m²
10:54 10.3 °C 10.3 °C 100 % 12 km/h (20 km/h) 0 mm0 mm 0 min 96.5 W/m²
10:48 10.2 °C 10.2 °C 100 % 12 km/h (22 km/h) 0 mm0 mm 0 min 86.1 W/m²
10:42 9.8 °C 9.8 °C 100 % 13 km/h (22 km/h) 0 mm0 mm 0 min 80 W/m²
10:36 9.7 °C 9.7 °C 100 % 12 km/h (22 km/h) 0 mm0 mm 0 min 75.2 W/m²
10:30 9.6 °C 9.6 °C 100 % 12 km/h (22 km/h) 0 mm0 mm 0 min 65.6 W/m²
10:24 9.8 °C 9.8 °C 100 % 9 km/h (20 km/h) 0 mm0 mm 0 min 66.2 W/m²
10:18 9.5 °C 9.5 °C 100 % 10 km/h (24 km/h) 0 mm0 mm 0 min 68 W/m²
10:12 9.3 °C 9.3 °C 100 % 12 km/h (24 km/h) 0 mm0 mm 0 min 55.4 W/m²
10:06 9.1 °C 9.1 °C 100 % 12 km/h (23 km/h) 0 mm0 mm 0 min 40.5 W/m²
10:00 9 °C 9 °C 100 % 13 km/h (24 km/h) 0 mm0 mm 0 min 40 W/m²
09:54 8.8 °C 8.8 °C 100 % 12 km/h (24 km/h) 0 mm0 mm 0 min 31.8 W/m²
09:48 8.8 °C 8.8 °C 100 % 11 km/h (22 km/h) 0 mm0 mm 0 min 38.7 W/m²
09:42 8.7 °C 8.7 °C 100 % 10 km/h (18 km/h) 0 mm0 mm 0 min 32.5 W/m²
09:36 8.7 °C 8.7 °C 100 % 9 km/h (18 km/h) 0 mm0 mm 0 min 35.4 W/m²
09:30 8.6 °C 8.6 °C 100 % 11 km/h (19 km/h) 0 mm0 mm 0 min 39.2 W/m²
09:24 8.6 °C 8.6 °C 100 % 12 km/h (19 km/h) 0 mm0 mm 0 min 44.6 W/m²
09:18 8.7 °C 8.7 °C 100 % 12 km/h (21 km/h) 0 mm0 mm 0 min 27.7 W/m²
09:12 8.6 °C 8.6 °C 100 % 12 km/h (22 km/h) 0 mm0 mm 0 min 36.6 W/m²
09:06 8.5 °C 8.5 °C 100 % 12 km/h (24 km/h) 0 mm0 mm 0 min 19.4 W/m²
09:00 8.4 °C 8.4 °C 100 % 14 km/h (24 km/h) 0 mm0 mm 0 min 22.5 W/m²
08:54 8.4 °C 8.4 °C 100 % 15 km/h (23 km/h) 0 mm0 mm 0 min 16.1 W/m²
08:48 8.5 °C 8.5 °C 100 % 13 km/h (22 km/h) 0 mm0 mm 0 min 17.3 W/m²
08:42 8.4 °C 8.4 °C 100 % 13 km/h (22 km/h) 0 mm0 mm 0 min 17.8 W/m²
08:36 8.4 °C 8.4 °C 100 % 12 km/h (20 km/h) 0 mm0 mm 0 min 17.2 W/m²
08:30 8.4 °C 8.4 °C 100 % 12 km/h (22 km/h) 0 mm0 mm 0 min 17.9 W/m²
08:24 8.5 °C 8.5 °C 100 % 10 km/h (21 km/h) 0 mm0 mm 0 min 10.3 W/m²
08:18 8.4 °C 8.4 °C 100 % 9 km/h (19 km/h) 0 mm0 mm 0 min 8.4 W/m²
08:12 8.3 °C 8.3 °C 100 % 12 km/h (22 km/h) 0 mm0 mm 0 min 9.7 W/m²
08:06 8.3 °C 8.3 °C 100 % 13 km/h (22 km/h) 0 mm0 mm 0 min 9.6 W/m²
08:00 8.1 °C 8.1 °C 100 % 12 km/h (20 km/h) 0 mm0 mm 0 min 9 W/m²
07:54 8 °C 8 °C 100 % 12 km/h (22 km/h) 0 mm0 mm 0 min 5.4 W/m²
07:48 8.2 °C 8.2 °C 100 % 10 km/h (18 km/h) 0 mm0 mm 0 min 0 W/m²
07:42 8.1 °C 8.1 °C 100 % 13 km/h (23 km/h) 0 mm0 mm 0 min 0.4 W/m²
07:36 8.2 °C 8.2 °C 100 % 13 km/h (23 km/h) 0 mm0 mm 0 min 0 W/m²
07:30 8.4 °C 8.4 °C 100 % 12 km/h (23 km/h) 0 mm0 mm 0 min 0.2 W/m²
07:24 8.4 °C 8.4 °C 100 % 14 km/h (23 km/h) 0 mm0 mm 0 min 0 W/m²
07:18 8.4 °C 8.4 °C 100 % 14 km/h (23 km/h) 0 mm0 mm 0 min 0 W/m²
07:12 8.5 °C 8.5 °C 100 % 12 km/h (22 km/h) 0 mm0 mm 0 min 0 W/m²
07:06 8.5 °C 8.5 °C 100 % 14 km/h (27 km/h) 0 mm0 mm 0 min 0 W/m²
07:00 8.3 °C 8.3 °C 100 % 15 km/h (28 km/h) 0 mm0 mm 0 min 0 W/m²
06:54 8.5 °C 8.5 °C 100 % 15 km/h (25 km/h) 0 mm0 mm 0 min 0 W/m²
06:48 8.5 °C 8.5 °C 100 % 15 km/h (28 km/h) 0 mm0 mm 0 min 0 W/m²
06:42 8.5 °C 8.5 °C 100 % 15 km/h (28 km/h) 0 mm0 mm 0 min 0 W/m²
06:36 8.5 °C 8.5 °C 100 % 13 km/h (24 km/h) 0 mm0 mm 0 min 0 W/m²
06:30 8.5 °C 8.5 °C 100 % 13 km/h (24 km/h) 0 mm0 mm 0 min 0 W/m²
06:24 8.5 °C 8.5 °C 100 % 14 km/h (24 km/h) 0 mm0 mm 0 min 0 W/m²
06:18 8.5 °C 8.5 °C 100 % 13 km/h (24 km/h) 0 mm0 mm 0 min 0 W/m²
06:12 8.6 °C 8.6 °C 100 % 13 km/h (24 km/h) 0 mm0 mm 0 min 0 W/m²
06:06 8.5 °C 8.5 °C 100 % 13 km/h (24 km/h) 0 mm0 mm 0 min 0 W/m²
06:00 8.5 °C 8.5 °C 100 % 13 km/h (25 km/h) 0 mm0 mm 0 min 0 W/m²
05:54 8.6 °C 8.6 °C 100 % 12 km/h (23 km/h) 0 mm0 mm 0 min 0 W/m²
05:48 8.6 °C 8.6 °C 100 % 13 km/h (23 km/h) 0 mm0 mm 0 min 0 W/m²
05:42 8.6 °C 8.6 °C 100 % 13 km/h (24 km/h) 0 mm0 mm 0 min 0 W/m²
05:36 8.7 °C 8.7 °C 100 % 12 km/h (24 km/h) 0 mm0 mm 0 min 0 W/m²
05:30 8.8 °C 8.8 °C 100 % 16 km/h (28 km/h) 0 mm0 mm 0 min 0 W/m²
05:24 8.9 °C 8.9 °C 100 % 15 km/h (28 km/h) 0 mm0 mm 0 min 0 W/m²
05:18 8.9 °C 8.9 °C 100 % 15 km/h (30 km/h) 0 mm0 mm 0 min 0 W/m²
05:12 9 °C 9 °C 100 % 14 km/h (26 km/h) 0 mm0 mm 0 min 0 W/m²
05:06 9 °C 9 °C 100 % 15 km/h (29 km/h) 0 mm0 mm 0 min 0 W/m²
05:00 8.7 °C 8.6 °C 99 % 17 km/h (29 km/h) 0 mm0 mm 0 min 0 W/m²
04:54 8.8 °C 8.8 °C 100 % 17 km/h (29 km/h) 0 mm0 mm 0 min 0 W/m²
04:48 9.2 °C 9.2 °C 100 % 16 km/h (27 km/h) 0 mm0 mm 0 min 0 W/m²
04:42 9.1 °C 9.1 °C 100 % 16 km/h (27 km/h) 0 mm0 mm 0 min 0 W/m²
04:36 9.2 °C 9.2 °C 100 % 14 km/h (26 km/h) 0 mm0 mm 0 min 0 W/m²
04:30 9.3 °C 9.3 °C 100 % 14 km/h (24 km/h) 0 mm0 mm 0 min 0 W/m²
04:24 9.2 °C 9.1 °C 99 % 13 km/h (23 km/h) 0 mm0 mm 0 min 0 W/m²
04:18 9.3 °C 9.2 °C 99 % 13 km/h (23 km/h) 0 mm0 mm 0 min 0 W/m²
04:12 9.3 °C 9.2 °C 99 % 14 km/h (24 km/h) 0 mm0 mm 0 min 0 W/m²
04:06 9.4 °C 9.3 °C 99 % 14 km/h (26 km/h) 0 mm0 mm 0 min 0 W/m²
04:00 9.4 °C 9.1 °C 98 % 12 km/h (20 km/h) 0 mm0 mm 0 min 0 W/m²
03:54 9.3 °C 8.8 °C 97 % 12 km/h (21 km/h) 0 mm0 mm 0 min 0 W/m²
03:48 9.5 °C 9.2 °C 98 % 12 km/h (23 km/h) 0 mm0 mm 0 min 0 W/m²
03:42 9.7 °C 9.4 °C 98 % 12 km/h (23 km/h) 0 mm0 mm 0 min 0 W/m²
03:36 9.7 °C 9.2 °C 97 % 13 km/h (24 km/h) 0 mm0 mm 0 min 0 W/m²
03:30 9.9 °C 9.4 °C 97 % 13 km/h (23 km/h) 0 mm0 mm 0 min 0 W/m²
03:24 10 °C 9.5 °C 97 % 15 km/h (26 km/h) 0 mm0 mm 0 min 0 W/m²
03:18 10.2 °C 9.6 °C 96 % 18 km/h (28 km/h) 0 mm0 mm 0 min 0 W/m²
03:12 10.3 °C 9.4 °C 94 % 18 km/h (28 km/h) 0 mm0 mm 0 min 0 W/m²
03:06 10.3 °C 8.7 °C 90 % 15 km/h (30 km/h) 0 mm0 mm 0 min 0 W/m²
03:00 10.3 °C 8.2 °C 87 % 15 km/h (30 km/h) 0 mm0 mm 0 min 0 W/m²
02:54 10.4 °C 8.2 °C 86 % 15 km/h (23 km/h) 0 mm0 mm 0 min 0 W/m²
02:48 10.5 °C 7.9 °C 84 % 15 km/h (26 km/h) 0 mm0 mm 0 min 0 W/m²
02:42 10.5 °C 7.9 °C 84 % 15 km/h (24 km/h) 0 mm0 mm 0 min 0 W/m²
02:36 10.6 °C 8.2 °C 85 % 16 km/h (26 km/h) 0 mm0 mm 0 min 0 W/m²
02:30 10.5 °C 8.3 °C 86 % 16 km/h (27 km/h) 0 mm0 mm 0 min 0 W/m²
02:24 10.6 °C 8.5 °C 87 % 17 km/h (27 km/h) 0 mm0 mm 0 min 0 W/m²
02:18 10.6 °C 8.9 °C 89 % 16 km/h (27 km/h) 0 mm0 mm 0 min 0 W/m²
02:12 10.5 °C 8.9 °C 90 % 16 km/h (30 km/h) 0 mm0 mm 0 min 0 W/m²
02:06 10.4 °C 9.3 °C 93 % 15 km/h (25 km/h) 0 mm0 mm 0 min 0 W/m²
02:00 10.5 °C 9.6 °C 94 % 15 km/h (25 km/h) 0 mm0 mm 0 min 0 W/m²
01:54 10.5 °C 9.7 °C 95 % 14 km/h (24 km/h) 0 mm0 mm 0 min 0 W/m²
01:48 10.4 °C 9.6 °C 95 % 12 km/h (22 km/h) 0 mm0 mm 0 min 0 W/m²
01:42 10.3 °C 9.5 °C 95 % 12 km/h (19 km/h) 0 mm0 mm 0 min 0 W/m²
01:36 10.4 °C 9.6 °C 95 % 13 km/h (21 km/h) 0 mm0 mm 0 min 0 W/m²
01:30 10.4 °C 9.9 °C 97 % 12 km/h (20 km/h) 0 mm0 mm 0 min 0 W/m²
01:24 10.5 °C 10.2 °C 98 % 10 km/h (17 km/h) 0 mm0 mm 0 min 0 W/m²
01:18 10.5 °C 10.2 °C 98 % 9 km/h (16 km/h) 0 mm0 mm 0 min 0 W/m²
01:12 10.6 °C 10.3 °C 98 % 9 km/h (17 km/h) 0 mm0 mm 0 min 0 W/m²
01:06 10.6 °C 10.4 °C 99 % 8 km/h (15 km/h) 0 mm0 mm 0 min 0 W/m²
01:00 10.7 °C 10.4 °C 98 % 9 km/h (15 km/h) 0 mm0 mm 0 min 0 W/m²
00:54 10.7 °C 10.4 °C 98 % 9 km/h (18 km/h) 0 mm0 mm 0 min 0 W/m²
00:48 10.7 °C 10.4 °C 98 % 10 km/h (19 km/h) 0 mm0 mm 0 min 0 W/m²
00:42 11.2 °C 11 °C 99 % 10 km/h (19 km/h) 0 mm0 mm 0 min 0 W/m²
00:36 11.2 °C 11 °C 99 % 12 km/h (19 km/h) 0 mm0 mm 0 min 0 W/m²
00:30 11.5 °C 11.5 °C 100 % 12 km/h (21 km/h) 0 mm0 mm 0 min 0 W/m²
00:24 11.6 °C 11.6 °C 100 % 13 km/h (21 km/h) 0 mm0 mm 0 min 0 W/m²
00:18 11.8 °C 11.8 °C 100 % 14 km/h (25 km/h) 0 mm0 mm 0 min 0 W/m²
00:12 11.8 °C 11.6 °C 99 % 15 km/h (27 km/h) 0 mm0 mm 0 min 0 W/m²
00:06 11.8 °C 11.6 °C 99 % 13 km/h (27 km/h) 0 mm0 mm 0 min 0 W/m²
00:00 11.9 °C 11.7 °C 99 % 14 km/h (30 km/h) 0 mm0 mm 0 min 0 W/m²

Données via Météo-France

Relevés météo à Chastreix

Cette page rassemble les observations de la station de Chastreix : température, humidité, vent, précipitations et pression atmosphérique. Les graphiques facilitent le suivi de la journée, tandis que le tableau donne accès aux mesures horaires et infra-horaires disponibles.

Pour replacer ces mesures dans leur contexte, consultez la climatologie de Chastreix ainsi que ses normales et records. Retrouvez aussi la carte des observations météo en temps réel.